sensor_id;sensor_type;location;lat;lon;timestamp;pressure;altitude;pressure_sealevel;temperature;humidity
53719;BME280;39616;48.872;9.390;2023-02-04T00:01:55;99542.75;;;6.08;100.00
53719;BME280;39616;48.872;9.390;2023-02-04T00:04:25;99549.50;;;6.11;100.00
53719;BME280;39616;48.872;9.390;2023-02-04T00:06:55;99542.13;;;6.18;100.00
53719;BME280;39616;48.872;9.390;2023-02-04T00:09:26;99549.97;;;6.19;100.00
53719;BME280;39616;48.872;9.390;2023-02-04T00:11:56;99534.84;;;6.18;100.00
53719;BME280;39616;48.872;9.390;2023-02-04T00:14:26;99534.50;;;6.15;100.00
53719;BME280;39616;48.872;9.390;2023-02-04T00:16:56;99541.94;;;6.08;100.00
53719;BME280;39616;48.872;9.390;2023-02-04T00:19:27;99532.19;;;6.07;100.00
53719;BME280;39616;48.872;9.390;2023-02-04T00:21:57;99545.09;;;6.04;100.00
53719;BME280;39616;48.872;9.390;2023-02-04T00:24:27;99537.03;;;6.04;100.00
53719;BME280;39616;48.872;9.390;2023-02-04T00:26:57;99541.72;;;5.97;100.00
53719;BME280;39616;48.872;9.390;2023-02-04T00:29:28;99545.44;;;5.96;100.00
53719;BME280;39616;48.872;9.390;2023-02-04T00:31:59;99554.81;;;5.94;100.00
53719;BME280;39616;48.872;9.390;2023-02-04T00:34:29;99544.88;;;5.94;100.00
53719;BME280;39616;48.872;9.390;2023-02-04T00:36:59;99549.88;;;5.91;100.00
53719;BME280;39616;48.872;9.390;2023-02-04T00:39:30;99550.13;;;5.89;100.00
53719;BME280;39616;48.872;9.390;2023-02-04T00:42:00;99541.44;;;5.87;100.00
53719;BME280;39616;48.872;9.390;2023-02-04T00:44:30;99545.22;;;5.86;100.00
53719;BME280;39616;48.872;9.390;2023-02-04T00:47:01;99548.72;;;5.87;100.00
53719;BME280;39616;48.872;9.390;2023-02-04T00:49:33;99551.63;;;5.85;100.00
53719;BME280;39616;48.872;9.390;2023-02-04T00:52:03;99559.69;;;5.85;100.00
53719;BME280;39616;48.872;9.390;2023-02-04T00:54:34;99553.16;;;5.93;100.00
53719;BME280;39616;48.872;9.390;2023-02-04T00:57:04;99557.34;;;5.89;100.00
53719;BME280;39616;48.872;9.390;2023-02-04T00:59:34;99555.16;;;5.86;100.00
53719;BME280;39616;48.872;9.390;2023-02-04T01:02:05;99551.41;;;5.87;100.00
53719;BME280;39616;48.872;9.390;2023-02-04T01:04:35;99570.00;;;5.88;100.00
53719;BME280;39616;48.872;9.390;2023-02-04T01:07:05;99560.28;;;5.87;100.00
53719;BME280;39616;48.872;9.390;2023-02-04T01:09:36;99556.53;;;5.88;100.00
53719;BME280;39616;48.872;9.390;2023-02-04T01:12:06;99565.22;;;5.90;100.00
53719;BME280;39616;48.872;9.390;2023-02-04T01:14:36;99563.72;;;5.94;100.00
53719;BME280;39616;48.872;9.390;2023-02-04T01:17:06;99566.63;;;5.93;100.00
53719;BME280;39616;48.872;9.390;2023-02-04T01:19:37;99581.50;;;5.95;100.00
53719;BME280;39616;48.872;9.390;2023-02-04T01:22:07;99596.59;;;5.96;100.00
53719;BME280;39616;48.872;9.390;2023-02-04T01:24:37;99591.69;;;5.93;100.00
53719;BME280;39616;48.872;9.390;2023-02-04T01:27:08;99595.78;;;5.96;100.00
53719;BME280;39616;48.872;9.390;2023-02-04T01:29:38;99601.63;;;5.93;100.00
53719;BME280;39616;48.872;9.390;2023-02-04T01:32:09;99602.66;;;5.92;100.00
53719;BME280;39616;48.872;9.390;2023-02-04T01:34:39;99594.03;;;6.01;100.00
53719;BME280;39616;48.872;9.390;2023-02-04T01:37:09;99600.22;;;6.14;100.00
53719;BME280;39616;48.872;9.390;2023-02-04T01:39:39;99598.81;;;6.23;100.00
53719;BME280;39616;48.872;9.390;2023-02-04T01:42:10;99605.22;;;6.22;100.00
53719;BME280;39616;48.872;9.390;2023-02-04T01:44:40;99614.97;;;6.23;100.00
53719;BME280;39616;48.872;9.390;2023-02-04T01:47:11;99606.19;;;6.16;100.00
53719;BME280;39616;48.872;9.390;2023-02-04T01:49:41;99608.75;;;6.11;100.00
53719;BME280;39616;48.872;9.390;2023-02-04T01:52:12;99609.94;;;6.03;100.00
53719;BME280;39616;48.872;9.390;2023-02-04T01:54:42;99611.47;;;5.99;100.00
53719;BME280;39616;48.872;9.390;2023-02-04T01:57:15;99610.66;;;5.98;100.00
53719;BME280;39616;48.872;9.390;2023-02-04T01:59:46;99610.19;;;6.01;100.00
53719;BME280;39616;48.872;9.390;2023-02-04T02:02:36;99620.50;;;6.04;100.00
53719;BME280;39616;48.872;9.390;2023-02-04T02:05:15;99623.53;;;6.08;100.00
53719;BME280;39616;48.872;9.390;2023-02-04T02:07:47;99626.44;;;6.07;100.00
53719;BME280;39616;48.872;9.390;2023-02-04T02:10:18;99631.63;;;6.08;100.00
53719;BME280;39616;48.872;9.390;2023-02-04T02:12:49;99631.03;;;6.06;100.00
53719;BME280;39616;48.872;9.390;2023-02-04T02:15:20;99627.50;;;6.05;100.00
53719;BME280;39616;48.872;9.390;2023-02-04T02:17:51;99625.63;;;6.06;100.00
53719;BME280;39616;48.872;9.390;2023-02-04T02:20:24;99626.78;;;6.10;100.00
53719;BME280;39616;48.872;9.390;2023-02-04T02:23:03;99634.88;;;6.10;100.00
53719;BME280;39616;48.872;9.390;2023-02-04T02:25:35;99624.69;;;6.12;100.00
53719;BME280;39616;48.872;9.390;2023-02-04T02:28:10;99637.00;;;6.08;100.00
53719;BME280;39616;48.872;9.390;2023-02-04T02:30:42;99635.00;;;6.15;100.00
53719;BME280;39616;48.872;9.390;2023-02-04T02:33:17;99621.41;;;6.10;100.00
53719;BME280;39616;48.872;9.390;2023-02-04T02:35:48;99628.22;;;6.13;100.00
53719;BME280;39616;48.872;9.390;2023-02-04T02:38:19;99630.19;;;6.05;100.00
53719;BME280;39616;48.872;9.390;2023-02-04T02:40:50;99626.44;;;6.07;100.00
53719;BME280;39616;48.872;9.390;2023-02-04T02:43:24;99627.41;;;6.00;100.00
53719;BME280;39616;48.872;9.390;2023-02-04T02:45:57;99639.91;;;6.07;100.00
53719;BME280;39616;48.872;9.390;2023-02-04T02:48:28;99636.06;;;6.02;100.00
53719;BME280;39616;48.872;9.390;2023-02-04T02:50:59;99638.19;;;6.00;100.00
53719;BME280;39616;48.872;9.390;2023-02-04T02:53:29;99649.41;;;5.97;100.00
53719;BME280;39616;48.872;9.390;2023-02-04T02:56:00;99651.75;;;6.05;100.00
53719;BME280;39616;48.872;9.390;2023-02-04T02:58:34;99654.09;;;6.02;100.00
53719;BME280;39616;48.872;9.390;2023-02-04T03:01:07;99661.34;;;6.01;100.00
53719;BME280;39616;48.872;9.390;2023-02-04T03:03:49;99655.00;;;5.96;100.00
53719;BME280;39616;48.872;9.390;2023-02-04T03:06:24;99665.09;;;6.00;100.00
53719;BME280;39616;48.872;9.390;2023-02-04T03:08:55;99670.25;;;6.02;100.00
53719;BME280;39616;48.872;9.390;2023-02-04T03:11:26;99672.34;;;6.00;100.00
53719;BME280;39616;48.872;9.390;2023-02-04T03:13:59;99679.38;;;6.01;100.00
53719;BME280;39616;48.872;9.390;2023-02-04T03:16:33;99670.00;;;6.03;100.00
53719;BME280;39616;48.872;9.390;2023-02-04T03:19:06;99678.22;;;5.97;100.00
53719;BME280;39616;48.872;9.390;2023-02-04T03:21:37;99676.41;;;5.91;100.00
53719;BME280;39616;48.872;9.390;2023-02-04T03:24:08;99690.94;;;5.90;100.00
53719;BME280;39616;48.872;9.390;2023-02-04T03:26:39;99689.66;;;5.92;100.00
53719;BME280;39616;48.872;9.390;2023-02-04T03:29:09;99696.22;;;5.96;100.00
53719;BME280;39616;48.872;9.390;2023-02-04T03:31:40;99699.59;;;5.92;100.00
53719;BME280;39616;48.872;9.390;2023-02-04T03:34:10;99701.09;;;5.88;100.00
53719;BME280;39616;48.872;9.390;2023-02-04T03:36:40;99704.34;;;5.78;100.00
53719;BME280;39616;48.872;9.390;2023-02-04T03:39:11;99709.28;;;5.81;100.00
53719;BME280;39616;48.872;9.390;2023-02-04T03:41:41;99708.25;;;5.82;100.00
53719;BME280;39616;48.872;9.390;2023-02-04T03:44:12;99711.41;;;5.79;100.00
53719;BME280;39616;48.872;9.390;2023-02-04T03:46:42;99714.91;;;5.79;100.00
53719;BME280;39616;48.872;9.390;2023-02-04T03:49:12;99728.47;;;5.85;100.00
53719;BME280;39616;48.872;9.390;2023-02-04T03:51:42;99723.78;;;5.80;100.00
53719;BME280;39616;48.872;9.390;2023-02-04T03:54:13;99729.28;;;5.73;100.00
53719;BME280;39616;48.872;9.390;2023-02-04T03:56:43;99734.22;;;5.76;100.00
53719;BME280;39616;48.872;9.390;2023-02-04T03:59:13;99729.06;;;5.75;100.00
53719;BME280;39616;48.872;9.390;2023-02-04T04:01:44;99732.66;;;5.69;100.00
53719;BME280;39616;48.872;9.390;2023-02-04T04:04:14;99731.13;;;5.61;100.00
53719;BME280;39616;48.872;9.390;2023-02-04T04:06:44;99741.88;;;5.61;100.00
53719;BME280;39616;48.872;9.390;2023-02-04T04:09:15;99740.09;;;5.55;100.00
53719;BME280;39616;48.872;9.390;2023-02-04T04:11:45;99743.03;;;5.53;100.00
53719;BME280;39616;48.872;9.390;2023-02-04T04:14:15;99735.88;;;5.47;100.00
53719;BME280;39616;48.872;9.390;2023-02-04T04:16:46;99736.56;;;5.43;100.00
53719;BME280;39616;48.872;9.390;2023-02-04T04:19:16;99747.53;;;5.41;100.00
53719;BME280;39616;48.872;9.390;2023-02-04T04:21:46;99749.41;;;5.41;100.00
53719;BME280;39616;48.872;9.390;2023-02-04T04:24:16;99748.00;;;5.38;100.00
53719;BME280;39616;48.872;9.390;2023-02-04T04:26:47;99749.16;;;5.30;100.00
53719;BME280;39616;48.872;9.390;2023-02-04T04:29:17;99748.31;;;5.30;100.00
53719;BME280;39616;48.872;9.390;2023-02-04T04:31:47;99760.81;;;5.24;100.00
53719;BME280;39616;48.872;9.390;2023-02-04T04:34:18;99750.75;;;5.20;100.00
53719;BME280;39616;48.872;9.390;2023-02-04T04:36:48;99756.56;;;5.17;100.00
53719;BME280;39616;48.872;9.390;2023-02-04T04:39:18;99758.44;;;5.16;100.00
53719;BME280;39616;48.872;9.390;2023-02-04T04:41:48;99764.09;;;5.08;100.00
53719;BME280;39616;48.872;9.390;2023-02-04T04:44:19;99772.78;;;5.10;100.00
53719;BME280;39616;48.872;9.390;2023-02-04T04:46:49;99771.97;;;5.09;100.00
53719;BME280;39616;48.872;9.390;2023-02-04T04:49:19;99774.72;;;5.03;100.00
53719;BME280;39616;48.872;9.390;2023-02-04T04:51:52;99774.72;;;5.03;100.00
53719;BME280;39616;48.872;9.390;2023-02-04T04:54:22;99777.66;;;5.01;100.00
53719;BME280;39616;48.872;9.390;2023-02-04T04:56:52;99768.38;;;4.97;100.00
53719;BME280;39616;48.872;9.390;2023-02-04T04:59:23;99771.06;;;4.97;100.00
53719;BME280;39616;48.872;9.390;2023-02-04T05:01:53;99774.13;;;5.01;100.00
53719;BME280;39616;48.872;9.390;2023-02-04T05:04:23;99768.59;;;4.96;100.00
53719;BME280;39616;48.872;9.390;2023-02-04T05:06:54;99776.53;;;4.91;100.00
53719;BME280;39616;48.872;9.390;2023-02-04T05:09:24;99778.03;;;4.87;100.00
53719;BME280;39616;48.872;9.390;2023-02-04T05:11:55;99783.00;;;4.83;100.00
53719;BME280;39616;48.872;9.390;2023-02-04T05:14:25;99783.22;;;4.81;100.00
53719;BME280;39616;48.872;9.390;2023-02-04T05:16:55;99775.97;;;4.82;100.00
53719;BME280;39616;48.872;9.390;2023-02-04T05:19:25;99782.78;;;4.84;100.00
53719;BME280;39616;48.872;9.390;2023-02-04T05:21:56;99778.28;;;4.78;100.00
53719;BME280;39616;48.872;9.390;2023-02-04T05:24:27;99777.25;;;4.79;100.00
53719;BME280;39616;48.872;9.390;2023-02-04T05:26:57;99773.16;;;4.77;100.00
53719;BME280;39616;48.872;9.390;2023-02-04T05:29:27;99776.66;;;4.77;100.00
53719;BME280;39616;48.872;9.390;2023-02-04T05:31:58;99780.53;;;4.81;100.00
53719;BME280;39616;48.872;9.390;2023-02-04T05:34:28;99788.38;;;4.83;100.00
53719;BME280;39616;48.872;9.390;2023-02-04T05:36:58;99786.16;;;4.80;100.00
53719;BME280;39616;48.872;9.390;2023-02-04T05:39:29;99791.53;;;4.80;100.00
53719;BME280;39616;48.872;9.390;2023-02-04T05:41:59;99786.91;;;4.87;100.00
53719;BME280;39616;48.872;9.390;2023-02-04T05:44:29;99787.56;;;4.82;100.00
53719;BME280;39616;48.872;9.390;2023-02-04T05:47:00;99788.00;;;4.79;100.00
53719;BME280;39616;48.872;9.390;2023-02-04T05:49:30;99790.47;;;4.81;100.00
53719;BME280;39616;48.872;9.390;2023-02-04T05:52:00;99787.25;;;4.72;100.00
53719;BME280;39616;48.872;9.390;2023-02-04T05:54:31;99779.56;;;4.76;100.00
53719;BME280;39616;48.872;9.390;2023-02-04T05:57:01;99783.28;;;4.75;100.00
53719;BME280;39616;48.872;9.390;2023-02-04T05:59:31;99794.03;;;4.75;100.00
53719;BME280;39616;48.872;9.390;2023-02-04T06:02:02;99812.03;;;4.74;100.00
53719;BME280;39616;48.872;9.390;2023-02-04T06:04:32;99812.47;;;4.71;100.00
53719;BME280;39616;48.872;9.390;2023-02-04T06:07:02;99819.13;;;4.69;100.00
53719;BME280;39616;48.872;9.390;2023-02-04T06:09:33;99820.19;;;4.68;100.00
53719;BME280;39616;48.872;9.390;2023-02-04T06:12:03;99822.41;;;4.71;100.00
53719;BME280;39616;48.872;9.390;2023-02-04T06:14:34;99828.25;;;4.68;100.00
53719;BME280;39616;48.872;9.390;2023-02-04T06:17:04;99846.44;;;4.66;100.00
53719;BME280;39616;48.872;9.390;2023-02-04T06:19:34;99848.97;;;4.60;100.00
53719;BME280;39616;48.872;9.390;2023-02-04T06:22:04;99856.84;;;4.55;100.00
53719;BME280;39616;48.872;9.390;2023-02-04T06:24:35;99851.53;;;4.49;100.00
53719;BME280;39616;48.872;9.390;2023-02-04T06:27:05;99859.19;;;4.45;100.00
53719;BME280;39616;48.872;9.390;2023-02-04T06:29:36;99858.22;;;4.40;100.00
53719;BME280;39616;48.872;9.390;2023-02-04T06:32:06;99858.72;;;4.30;100.00
53719;BME280;39616;48.872;9.390;2023-02-04T06:34:36;99872.16;;;4.23;100.00
53719;BME280;39616;48.872;9.390;2023-02-04T06:37:07;99871.19;;;4.18;100.00
53719;BME280;39616;48.872;9.390;2023-02-04T06:39:37;99888.16;;;4.11;100.00
53719;BME280;39616;48.872;9.390;2023-02-04T06:42:08;99885.09;;;4.08;100.00
53719;BME280;39616;48.872;9.390;2023-02-04T06:44:38;99892.31;;;4.07;100.00
53719;BME280;39616;48.872;9.390;2023-02-04T06:47:08;99879.94;;;4.06;100.00
53719;BME280;39616;48.872;9.390;2023-02-04T06:49:39;99885.91;;;4.08;100.00
53719;BME280;39616;48.872;9.390;2023-02-04T06:52:09;99887.56;;;4.09;100.00
53719;BME280;39616;48.872;9.390;2023-02-04T06:54:40;99890.84;;;4.11;100.00
53719;BME280;39616;48.872;9.390;2023-02-04T06:57:10;99894.75;;;4.16;100.00
53719;BME280;39616;48.872;9.390;2023-02-04T06:59:41;99896.84;;;4.14;100.00
53719;BME280;39616;48.872;9.390;2023-02-04T07:02:13;99899.28;;;4.15;100.00
53719;BME280;39616;48.872;9.390;2023-02-04T07:04:43;99896.41;;;4.17;100.00
53719;BME280;39616;48.872;9.390;2023-02-04T07:07:13;99906.34;;;4.16;100.00
53719;BME280;39616;48.872;9.390;2023-02-04T07:09:44;99916.41;;;4.21;100.00
53719;BME280;39616;48.872;9.390;2023-02-04T07:12:14;99915.97;;;4.24;100.00
53719;BME280;39616;48.872;9.390;2023-02-04T07:14:44;99926.50;;;4.25;100.00
53719;BME280;39616;48.872;9.390;2023-02-04T07:17:14;99927.72;;;4.29;100.00
53719;BME280;39616;48.872;9.390;2023-02-04T07:19:45;99937.22;;;4.32;100.00
53719;BME280;39616;48.872;9.390;2023-02-04T07:22:15;99936.16;;;4.33;100.00
53719;BME280;39616;48.872;9.390;2023-02-04T07:24:45;99945.84;;;4.34;100.00
53719;BME280;39616;48.872;9.390;2023-02-04T07:27:16;99951.47;;;4.32;100.00
53719;BME280;39616;48.872;9.390;2023-02-04T07:29:46;99957.81;;;4.38;100.00
53719;BME280;39616;48.872;9.390;2023-02-04T07:32:16;99965.44;;;4.41;100.00
53719;BME280;39616;48.872;9.390;2023-02-04T07:34:47;99962.97;;;4.40;100.00
53719;BME280;39616;48.872;9.390;2023-02-04T07:37:17;99959.88;;;4.43;100.00
53719;BME280;39616;48.872;9.390;2023-02-04T07:39:49;99957.38;;;4.41;100.00
53719;BME280;39616;48.872;9.390;2023-02-04T07:42:19;99961.28;;;4.45;100.00
53719;BME280;39616;48.872;9.390;2023-02-04T07:44:50;99965.63;;;4.46;100.00
53719;BME280;39616;48.872;9.390;2023-02-04T07:47:20;99967.66;;;4.51;100.00
53719;BME280;39616;48.872;9.390;2023-02-04T07:49:50;99966.41;;;4.53;100.00
53719;BME280;39616;48.872;9.390;2023-02-04T07:52:22;99963.72;;;4.53;100.00
53719;BME280;39616;48.872;9.390;2023-02-04T07:54:52;99963.94;;;4.52;100.00
53719;BME280;39616;48.872;9.390;2023-02-04T07:57:22;99967.81;;;4.56;100.00
53719;BME280;39616;48.872;9.390;2023-02-04T07:59:53;99974.00;;;4.56;100.00
53719;BME280;39616;48.872;9.390;2023-02-04T08:02:23;99979.59;;;4.62;100.00
53719;BME280;39616;48.872;9.390;2023-02-04T08:04:53;99985.94;;;4.67;100.00
53719;BME280;39616;48.872;9.390;2023-02-04T08:07:24;99989.00;;;4.71;100.00
53719;BME280;39616;48.872;9.390;2023-02-04T08:09:54;99990.03;;;4.76;100.00
53719;BME280;39616;48.872;9.390;2023-02-04T08:12:24;99989.16;;;4.82;100.00
53719;BME280;39616;48.872;9.390;2023-02-04T08:14:55;99996.75;;;4.85;100.00
53719;BME280;39616;48.872;9.390;2023-02-04T08:17:25;99993.44;;;4.90;100.00
53719;BME280;39616;48.872;9.390;2023-02-04T08:19:56;99999.13;;;5.00;100.00
53719;BME280;39616;48.872;9.390;2023-02-04T08:22:26;100000.38;;;5.04;100.00
53719;BME280;39616;48.872;9.390;2023-02-04T08:24:57;100009.06;;;5.00;100.00
53719;BME280;39616;48.872;9.390;2023-02-04T08:27:27;100013.81;;;5.04;100.00
53719;BME280;39616;48.872;9.390;2023-02-04T08:29:57;100012.75;;;5.05;100.00
53719;BME280;39616;48.872;9.390;2023-02-04T08:32:28;100022.03;;;5.09;100.00
53719;BME280;39616;48.872;9.390;2023-02-04T08:35:00;100026.34;;;5.11;100.00
53719;BME280;39616;48.872;9.390;2023-02-04T08:37:30;100033.84;;;5.08;100.00
53719;BME280;39616;48.872;9.390;2023-02-04T08:40:00;100035.91;;;5.06;100.00
53719;BME280;39616;48.872;9.390;2023-02-04T08:42:31;100039.22;;;5.08;100.00
53719;BME280;39616;48.872;9.390;2023-02-04T08:45:01;100036.34;;;5.03;100.00
53719;BME280;39616;48.872;9.390;2023-02-04T08:47:32;100029.66;;;5.13;100.00
53719;BME280;39616;48.872;9.390;2023-02-04T08:50:03;100038.94;;;5.17;100.00
53719;BME280;39616;48.872;9.390;2023-02-04T08:52:33;100037.41;;;5.27;100.00
53719;BME280;39616;48.872;9.390;2023-02-04T08:55:04;100043.59;;;5.28;100.00
53719;BME280;39616;48.872;9.390;2023-02-04T08:57:34;100042.72;;;5.34;100.00
53719;BME280;39616;48.872;9.390;2023-02-04T09:00:05;100045.72;;;5.44;100.00
53719;BME280;39616;48.872;9.390;2023-02-04T09:02:35;100052.09;;;5.50;100.00
53719;BME280;39616;48.872;9.390;2023-02-04T09:05:06;100044.25;;;5.48;100.00
53719;BME280;39616;48.872;9.390;2023-02-04T09:07:36;100049.47;;;5.43;100.00
53719;BME280;39616;48.872;9.390;2023-02-04T09:10:06;100049.91;;;5.40;100.00
53719;BME280;39616;48.872;9.390;2023-02-04T09:12:37;100062.44;;;5.53;100.00
53719;BME280;39616;48.872;9.390;2023-02-04T09:15:09;100053.34;;;5.72;100.00
53719;BME280;39616;48.872;9.390;2023-02-04T09:17:39;100056.78;;;5.79;100.00
53719;BME280;39616;48.872;9.390;2023-02-04T09:20:11;100066.72;;;5.61;100.00
53719;BME280;39616;48.872;9.390;2023-02-04T09:22:41;100072.69;;;5.63;100.00
53719;BME280;39616;48.872;9.390;2023-02-04T09:25:12;100076.47;;;5.55;99.16
53719;BME280;39616;48.872;9.390;2023-02-04T09:27:42;100080.66;;;5.51;97.43
53719;BME280;39616;48.872;9.390;2023-02-04T09:30:12;100080.31;;;5.41;97.63
53719;BME280;39616;48.872;9.390;2023-02-04T09:32:43;100088.00;;;5.37;94.12
53719;BME280;39616;48.872;9.390;2023-02-04T09:35:13;100090.25;;;5.40;94.47
53719;BME280;39616;48.872;9.390;2023-02-04T09:37:44;100094.34;;;5.49;93.01
53719;BME280;39616;48.872;9.390;2023-02-04T09:40:15;100096.69;;;5.64;93.81
53719;BME280;39616;48.872;9.390;2023-02-04T09:42:48;100093.72;;;5.72;92.28
53719;BME280;39616;48.872;9.390;2023-02-04T09:45:25;100095.78;;;5.70;86.68
53719;BME280;39616;48.872;9.390;2023-02-04T09:47:57;100098.94;;;5.67;86.45
53719;BME280;39616;48.872;9.390;2023-02-04T09:50:30;100101.56;;;5.74;84.25
53719;BME280;39616;48.872;9.390;2023-02-04T09:53:04;100108.38;;;5.76;85.25
53719;BME280;39616;48.872;9.390;2023-02-04T09:55:40;100111.50;;;5.73;83.65
53719;BME280;39616;48.872;9.390;2023-02-04T09:58:14;100109.56;;;5.80;82.87
53719;BME280;39616;48.872;9.390;2023-02-04T10:00:51;100111.78;;;5.90;80.11
53719;BME280;39616;48.872;9.390;2023-02-04T10:03:25;100103.81;;;6.02;79.22
53719;BME280;39616;48.872;9.390;2023-02-04T10:05:55;100105.75;;;6.13;78.92
53719;BME280;39616;48.872;9.390;2023-02-04T10:08:30;100108.84;;;5.92;77.68
53719;BME280;39616;48.872;9.390;2023-02-04T10:11:02;100112.81;;;5.89;78.18
53719;BME280;39616;48.872;9.390;2023-02-04T10:13:45;100109.06;;;5.97;79.85
53719;BME280;39616;48.872;9.390;2023-02-04T10:16:30;100109.06;;;5.97;79.94
53719;BME280;39616;48.872;9.390;2023-02-04T10:19:03;100108.00;;;5.98;80.89
53719;BME280;39616;48.872;9.390;2023-02-04T10:21:35;100102.81;;;5.96;81.64
53719;BME280;39616;48.872;9.390;2023-02-04T10:24:14;100111.06;;;5.76;81.79
53719;BME280;39616;48.872;9.390;2023-02-04T10:26:45;100111.34;;;5.68;82.03
53719;BME280;39616;48.872;9.390;2023-02-04T10:29:17;100110.91;;;5.71;83.11
53719;BME280;39616;48.872;9.390;2023-02-04T10:31:49;100107.56;;;5.76;83.30
53719;BME280;39616;48.872;9.390;2023-02-04T10:34:21;100108.38;;;5.76;83.54
53719;BME280;39616;48.872;9.390;2023-02-04T10:36:55;100103.22;;;5.75;84.80
53719;BME280;39616;48.872;9.390;2023-02-04T10:39:28;100109.56;;;5.80;83.82
53719;BME280;39616;48.872;9.390;2023-02-04T10:41:59;100102.66;;;5.66;80.56
53719;BME280;39616;48.872;9.390;2023-02-04T10:44:32;100100.38;;;5.88;81.32
53719;BME280;39616;48.872;9.390;2023-02-04T10:47:04;100100.19;;;5.90;80.48
53719;BME280;39616;48.872;9.390;2023-02-04T10:49:35;100104.13;;;5.87;79.29
53719;BME280;39616;48.872;9.390;2023-02-04T10:52:15;100110.56;;;5.86;79.36
53719;BME280;39616;48.872;9.390;2023-02-04T10:54:47;100103.28;;;5.93;79.77
53719;BME280;39616;48.872;9.390;2023-02-04T10:57:26;100095.81;;;5.89;78.99
53719;BME280;39616;48.872;9.390;2023-02-04T10:59:59;100102.63;;;5.91;77.56
53719;BME280;39616;48.872;9.390;2023-02-04T11:02:40;100100.28;;;6.01;78.46
53719;BME280;39616;48.872;9.390;2023-02-04T11:05:23;100109.50;;;6.12;77.77
53719;BME280;39616;48.872;9.390;2023-02-04T11:07:55;100096.03;;;6.31;76.39
53719;BME280;39616;48.872;9.390;2023-02-04T11:10:32;100102.75;;;6.58;74.81
53719;BME280;39616;48.872;9.390;2023-02-04T11:13:05;100110.25;;;6.38;76.39
53719;BME280;39616;48.872;9.390;2023-02-04T11:15:47;100104.94;;;6.31;77.01
53719;BME280;39616;48.872;9.390;2023-02-04T11:20:54;100113.91;;;6.25;77.31
53719;BME280;39616;48.872;9.390;2023-02-04T11:26:10;100102.94;;;6.26;77.58
53719;BME280;39616;48.872;9.390;2023-02-04T11:31:38;100099.16;;;6.46;77.38
53719;BME280;39616;48.872;9.390;2023-02-04T11:39:35;100089.56;;;7.10;74.39
53719;BME280;39616;48.872;9.390;2023-02-04T11:42:39;100090.56;;;7.28;73.63
53719;BME280;39616;48.872;9.390;2023-02-04T11:45:15;100088.59;;;6.93;73.95
53719;BME280;39616;48.872;9.390;2023-02-04T11:47:47;100090.72;;;7.02;73.51
53719;BME280;39616;48.872;9.390;2023-02-04T11:50:23;100087.22;;;7.02;73.51
53719;BME280;39616;48.872;9.390;2023-02-04T11:52:58;100088.47;;;7.41;73.99
53719;BME280;39616;48.872;9.390;2023-02-04T11:55:34;100085.53;;;7.55;73.01
53719;BME280;39616;48.872;9.390;2023-02-04T11:58:13;100086.84;;;7.64;71.92
53719;BME280;39616;48.872;9.390;2023-02-04T12:00:44;100086.03;;;7.63;72.04
53719;BME280;39616;48.872;9.390;2023-02-04T12:03:26;100089.19;;;7.72;71.54
53719;BME280;39616;48.872;9.390;2023-02-04T12:05:59;100086.97;;;7.45;73.51
53719;BME280;39616;48.872;9.390;2023-02-04T12:08:30;100093.41;;;7.80;71.63
53719;BME280;39616;48.872;9.390;2023-02-04T12:11:08;100103.59;;;7.42;71.31
53719;BME280;39616;48.872;9.390;2023-02-04T12:13:52;100104.81;;;7.05;71.70
53719;BME280;39616;48.872;9.390;2023-02-04T12:16:24;100101.09;;;7.17;72.78
53719;BME280;39616;48.872;9.390;2023-02-04T12:18:55;100107.09;;;7.31;71.09
53719;BME280;39616;48.872;9.390;2023-02-04T12:21:25;100107.84;;;6.96;71.76
53719;BME280;39616;48.872;9.390;2023-02-04T12:23:55;100099.53;;;7.10;71.58
53719;BME280;39616;48.872;9.390;2023-02-04T12:26:26;100105.69;;;7.29;72.29
53719;BME280;39616;48.872;9.390;2023-02-04T12:28:56;100107.91;;;7.20;69.95
53719;BME280;39616;48.872;9.390;2023-02-04T12:31:29;100108.69;;;7.09;70.19
53719;BME280;39616;48.872;9.390;2023-02-04T12:34:00;100104.81;;;7.05;69.77
53719;BME280;39616;48.872;9.390;2023-02-04T12:36:30;100105.34;;;6.95;70.88
53719;BME280;39616;48.872;9.390;2023-02-04T12:39:01;100101.66;;;7.08;70.26
53719;BME280;39616;48.872;9.390;2023-02-04T12:41:32;100104.78;;;6.93;70.52
53719;BME280;39616;48.872;9.390;2023-02-04T12:44:02;100096.94;;;7.03;70.65
53719;BME280;39616;48.872;9.390;2023-02-04T12:46:33;100099.16;;;6.94;70.94
53719;BME280;39616;48.872;9.390;2023-02-04T12:49:03;100110.59;;;6.78;70.38
53719;BME280;39616;48.872;9.390;2023-02-04T12:51:34;100104.63;;;6.88;71.03
53719;BME280;39616;48.872;9.390;2023-02-04T12:54:04;100105.44;;;6.58;72.14
53719;BME280;39616;48.872;9.390;2023-02-04T12:56:34;100107.16;;;6.71;70.80
53719;BME280;39616;48.872;9.390;2023-02-04T12:59:05;100109.78;;;6.77;70.04
53719;BME280;39616;48.872;9.390;2023-02-04T13:01:35;100112.63;;;6.94;70.86
53719;BME280;39616;48.872;9.390;2023-02-04T13:04:05;100105.69;;;6.87;69.92
53719;BME280;39616;48.872;9.390;2023-02-04T13:06:35;100107.31;;;6.88;69.64
53719;BME280;39616;48.872;9.390;2023-02-04T13:09:06;100103.47;;;6.65;70.92
53719;BME280;39616;48.872;9.390;2023-02-04T13:11:36;100108.72;;;6.78;71.73
53719;BME280;39616;48.872;9.390;2023-02-04T13:14:06;100111.16;;;6.80;71.70
53719;BME280;39616;48.872;9.390;2023-02-04T13:16:37;100105.06;;;6.85;70.81
53719;BME280;39616;48.872;9.390;2023-02-04T13:19:07;100115.25;;;7.01;70.04
53719;BME280;39616;48.872;9.390;2023-02-04T13:21:37;100108.84;;;6.84;70.42
53719;BME280;39616;48.872;9.390;2023-02-04T13:24:08;100105.84;;;6.73;70.49
53719;BME280;39616;48.872;9.390;2023-02-04T13:26:38;100114.50;;;6.94;70.96
53719;BME280;39616;48.872;9.390;2023-02-04T13:29:08;100118.56;;;6.85;73.19
53719;BME280;39616;48.872;9.390;2023-02-04T13:31:39;100112.75;;;6.99;71.28
53719;BME280;39616;48.872;9.390;2023-02-04T13:34:09;100117.94;;;7.01;71.31
53719;BME280;39616;48.872;9.390;2023-02-04T13:36:39;100117.16;;;6.82;71.11